sensor_id;sensor_type;location;lat;lon;timestamp;pressure;altitude;pressure_sealevel;temperature;humidity
46506;BME280;32220;49.808;9.968;2023-07-20T00:00:27;98574.66;;;19.29;76.91
46506;BME280;32220;49.808;9.968;2023-07-20T00:03:09;98577.00;;;19.24;76.82
46506;BME280;32220;49.808;9.968;2023-07-20T00:05:39;98567.50;;;19.12;76.41
46506;BME280;32220;49.808;9.968;2023-07-20T00:08:06;98580.13;;;19.19;76.51
46506;BME280;32220;49.808;9.968;2023-07-20T00:10:34;98579.28;;;19.19;76.44
46506;BME280;32220;49.808;9.968;2023-07-20T00:13:01;98582.66;;;19.21;76.06
46506;BME280;32220;49.808;9.968;2023-07-20T00:15:29;98586.88;;;19.23;76.30
46506;BME280;32220;49.808;9.968;2023-07-20T00:17:57;98570.88;;;19.14;76.20
46506;BME280;32220;49.808;9.968;2023-07-20T00:20:24;98588.41;;;19.26;76.65
46506;BME280;32220;49.808;9.968;2023-07-20T00:22:53;98591.09;;;19.26;76.60
46506;BME280;32220;49.808;9.968;2023-07-20T00:25:21;98584.72;;;19.27;76.56
46506;BME280;32220;49.808;9.968;2023-07-20T00:27:48;98584.25;;;19.31;76.19
46506;BME280;32220;49.808;9.968;2023-07-20T00:30:16;98586.63;;;19.34;76.05
46506;BME280;32220;49.808;9.968;2023-07-20T00:32:44;98567.63;;;19.28;76.02
46506;BME280;32220;49.808;9.968;2023-07-20T00:35:13;98587.31;;;19.36;76.08
46506;BME280;32220;49.808;9.968;2023-07-20T00:37:41;98591.84;;;19.36;75.65
46506;BME280;32220;49.808;9.968;2023-07-20T00:40:10;98581.94;;;19.36;75.81
46506;BME280;32220;49.808;9.968;2023-07-20T00:42:38;98589.31;;;19.34;75.99
46506;BME280;32220;49.808;9.968;2023-07-20T00:45:07;98586.78;;;19.33;75.84
46506;BME280;32220;49.808;9.968;2023-07-20T00:47:36;98587.06;;;19.30;75.82
46506;BME280;32220;49.808;9.968;2023-07-20T00:50:05;98575.91;;;19.17;75.77
46506;BME280;32220;49.808;9.968;2023-07-20T00:52:33;98600.31;;;19.23;75.99
46506;BME280;32220;49.808;9.968;2023-07-20T00:55:01;98551.56;;;18.92;76.20
46506;BME280;32220;49.808;9.968;2023-07-20T00:57:32;98605.28;;;19.18;76.56
46506;BME280;32220;49.808;9.968;2023-07-20T01:00:00;98597.72;;;19.14;77.31
46506;BME280;32220;49.808;9.968;2023-07-20T01:02:28;98600.41;;;19.14;77.42
46506;BME280;32220;49.808;9.968;2023-07-20T01:04:56;98599.56;;;19.13;77.23
46506;BME280;32220;49.808;9.968;2023-07-20T01:07:25;98596.03;;;19.13;77.18
46506;BME280;32220;49.808;9.968;2023-07-20T01:10:01;98601.25;;;19.14;76.70
46506;BME280;32220;49.808;9.968;2023-07-20T01:12:38;98596.88;;;19.13;76.95
46506;BME280;32220;49.808;9.968;2023-07-20T01:15:08;98588.22;;;19.01;77.44
46506;BME280;32220;49.808;9.968;2023-07-20T01:17:37;98577.81;;;18.98;77.25
46506;BME280;32220;49.808;9.968;2023-07-20T01:20:07;98594.34;;;19.12;77.60
46506;BME280;32220;49.808;9.968;2023-07-20T01:22:48;98589.81;;;19.12;77.77
46506;BME280;32220;49.808;9.968;2023-07-20T01:25:34;98597.72;;;19.14;77.33
46506;BME280;32220;49.808;9.968;2023-07-20T01:28:28;98596.03;;;19.13;77.33
46506;BME280;32220;49.808;9.968;2023-07-20T01:31:21;98581.19;;;19.00;77.88
46506;BME280;32220;49.808;9.968;2023-07-20T01:33:50;98586.59;;;19.09;77.78
46506;BME280;32220;49.808;9.968;2023-07-20T01:36:19;98590.13;;;19.09;77.57
46506;BME280;32220;49.808;9.968;2023-07-20T01:38:49;98587.59;;;19.08;77.31
46506;BME280;32220;49.808;9.968;2023-07-20T01:41:18;98591.28;;;19.07;77.23
46506;BME280;32220;49.808;9.968;2023-07-20T01:43:46;98593.25;;;19.05;77.08
46506;BME280;32220;49.808;9.968;2023-07-20T01:46:15;98591.91;;;19.00;77.05
46506;BME280;32220;49.808;9.968;2023-07-20T01:48:45;98599.28;;;18.98;77.02
46506;BME280;32220;49.808;9.968;2023-07-20T01:51:12;98594.19;;;18.95;77.20
46506;BME280;32220;49.808;9.968;2023-07-20T01:53:40;98609.38;;;19.05;77.26
46506;BME280;32220;49.808;9.968;2023-07-20T01:56:08;98603.50;;;19.01;77.18
46506;BME280;32220;49.808;9.968;2023-07-20T01:58:38;98613.38;;;19.00;76.97
46506;BME280;32220;49.808;9.968;2023-07-20T02:01:05;98593.44;;;18.85;77.03
46506;BME280;32220;49.808;9.968;2023-07-20T02:03:33;98612.63;;;18.90;76.79
46506;BME280;32220;49.808;9.968;2023-07-20T02:06:03;98621.28;;;18.84;76.96
46506;BME280;32220;49.808;9.968;2023-07-20T02:08:31;98611.53;;;18.83;77.06
46506;BME280;32220;49.808;9.968;2023-07-20T02:10:59;98614.00;;;18.77;76.96
46506;BME280;32220;49.808;9.968;2023-07-20T02:13:26;98620.06;;;18.79;77.55
46506;BME280;32220;49.808;9.968;2023-07-20T02:15:54;98599.00;;;18.66;77.44
46506;BME280;32220;49.808;9.968;2023-07-20T02:18:22;98610.22;;;18.70;77.56
46506;BME280;32220;49.808;9.968;2023-07-20T02:20:52;98610.00;;;18.63;77.34
46506;BME280;32220;49.808;9.968;2023-07-20T02:23:22;98615.94;;;18.57;77.29
46506;BME280;32220;49.808;9.968;2023-07-20T02:25:49;98620.78;;;18.53;77.62
46506;BME280;32220;49.808;9.968;2023-07-20T02:28:17;98613.47;;;18.46;77.65
46506;BME280;32220;49.808;9.968;2023-07-20T02:30:45;98619.84;;;18.45;77.31
46506;BME280;32220;49.808;9.968;2023-07-20T02:33:13;98612.72;;;18.36;77.44
46506;BME280;32220;49.808;9.968;2023-07-20T02:35:40;98619.91;;;18.35;77.35
46506;BME280;32220;49.808;9.968;2023-07-20T02:38:08;98620.34;;;18.30;77.08
46506;BME280;32220;49.808;9.968;2023-07-20T02:40:37;98592.97;;;18.09;77.16
46506;BME280;32220;49.808;9.968;2023-07-20T02:43:05;98606.91;;;18.13;77.29
46506;BME280;32220;49.808;9.968;2023-07-20T02:45:32;98609.34;;;18.06;76.76
46506;BME280;32220;49.808;9.968;2023-07-20T02:48:00;98597.13;;;17.94;77.17
46506;BME280;32220;49.808;9.968;2023-07-20T02:50:28;98620.22;;;18.05;77.06
46506;BME280;32220;49.808;9.968;2023-07-20T02:52:56;98625.03;;;18.01;77.31
46506;BME280;32220;49.808;9.968;2023-07-20T02:55:24;98631.69;;;17.97;77.41
46506;BME280;32220;49.808;9.968;2023-07-20T02:57:53;98632.81;;;17.94;77.62
46506;BME280;32220;49.808;9.968;2023-07-20T03:00:21;98626.91;;;17.91;77.71
46506;BME280;32220;49.808;9.968;2023-07-20T03:02:49;98607.94;;;17.75;77.62
46506;BME280;32220;49.808;9.968;2023-07-20T03:05:19;98625.81;;;17.84;78.02
46506;BME280;32220;49.808;9.968;2023-07-20T03:07:46;98634.97;;;17.81;78.34
46506;BME280;32220;49.808;9.968;2023-07-20T03:10:14;98627.41;;;17.77;78.16
46506;BME280;32220;49.808;9.968;2023-07-20T03:12:42;98623.88;;;17.76;78.34
46506;BME280;32220;49.808;9.968;2023-07-20T03:15:12;98631.34;;;17.73;78.10
46506;BME280;32220;49.808;9.968;2023-07-20T03:17:40;98628.81;;;17.71;78.30
46506;BME280;32220;49.808;9.968;2023-07-20T03:20:09;98615.84;;;17.57;78.37
46506;BME280;32220;49.808;9.968;2023-07-20T03:22:39;98635.63;;;17.66;78.64
46506;BME280;32220;49.808;9.968;2023-07-20T03:25:07;98632.22;;;17.64;78.74
46506;BME280;32220;49.808;9.968;2023-07-20T03:27:35;98637.59;;;17.64;78.23
46506;BME280;32220;49.808;9.968;2023-07-20T03:30:03;98637.84;;;17.60;78.49
46506;BME280;32220;49.808;9.968;2023-07-20T03:32:34;98638.13;;;17.57;78.18
46506;BME280;32220;49.808;9.968;2023-07-20T03:35:03;98639.28;;;17.55;77.82
46506;BME280;32220;49.808;9.968;2023-07-20T03:37:31;98644.91;;;17.52;77.74
46506;BME280;32220;49.808;9.968;2023-07-20T03:40:01;98648.59;;;17.51;77.87
46506;BME280;32220;49.808;9.968;2023-07-20T03:42:29;98641.56;;;17.40;77.87
46506;BME280;32220;49.808;9.968;2023-07-20T03:44:56;98658.72;;;17.47;77.94
46506;BME280;32220;49.808;9.968;2023-07-20T03:47:24;98649.28;;;17.43;78.29
46506;BME280;32220;49.808;9.968;2023-07-20T03:49:54;98659.84;;;17.45;78.37
46506;BME280;32220;49.808;9.968;2023-07-20T03:52:21;98660.69;;;17.45;78.42
46506;BME280;32220;49.808;9.968;2023-07-20T03:54:49;98655.78;;;17.41;78.57
46506;BME280;32220;49.808;9.968;2023-07-20T03:57:17;98666.06;;;17.45;78.56
46506;BME280;32220;49.808;9.968;2023-07-20T03:59:45;98669.44;;;17.47;79.06
46506;BME280;32220;49.808;9.968;2023-07-20T04:02:13;98673.81;;;17.48;78.83
46506;BME280;32220;49.808;9.968;2023-07-20T04:04:42;98672.69;;;17.51;78.88
46506;BME280;32220;49.808;9.968;2023-07-20T04:07:12;98668.88;;;17.53;78.89
46506;BME280;32220;49.808;9.968;2023-07-20T04:09:42;98654.50;;;17.45;78.82
46506;BME280;32220;49.808;9.968;2023-07-20T04:12:10;98674.47;;;17.60;79.05
46506;BME280;32220;49.808;9.968;2023-07-20T04:14:38;98673.91;;;17.56;78.69
46506;BME280;32220;49.808;9.968;2023-07-20T04:17:06;98679.16;;;17.68;78.74
46506;BME280;32220;49.808;9.968;2023-07-20T04:19:34;98681.41;;;17.72;78.21
46506;BME280;32220;49.808;9.968;2023-07-20T04:22:01;98685.34;;;17.78;78.18
46506;BME280;32220;49.808;9.968;2023-07-20T04:24:31;98685.72;;;17.83;77.53
46506;BME280;32220;49.808;9.968;2023-07-20T04:26:59;98687.97;;;17.87;77.63
46506;BME280;32220;49.808;9.968;2023-07-20T04:29:27;98695.59;;;17.92;77.00
46506;BME280;32220;49.808;9.968;2023-07-20T04:31:54;98675.16;;;17.91;76.76
46506;BME280;32220;49.808;9.968;2023-07-20T04:34:22;98673.56;;;17.98;76.87
46506;BME280;32220;49.808;9.968;2023-07-20T04:36:50;98680.00;;;18.05;76.44
46506;BME280;32220;49.808;9.968;2023-07-20T04:39:18;98688.47;;;18.10;75.98
46506;BME280;32220;49.808;9.968;2023-07-20T04:41:47;98693.25;;;18.16;75.48
46506;BME280;32220;49.808;9.968;2023-07-20T04:44:16;98696.31;;;18.21;75.29
46506;BME280;32220;49.808;9.968;2023-07-20T04:46:43;98704.63;;;18.28;74.73
46506;BME280;32220;49.808;9.968;2023-07-20T04:49:11;98692.06;;;18.28;74.33
46506;BME280;32220;49.808;9.968;2023-07-20T04:51:42;98708.09;;;18.38;74.60
46506;BME280;32220;49.808;9.968;2023-07-20T04:54:10;98710.03;;;18.46;73.86
46506;BME280;32220;49.808;9.968;2023-07-20T04:56:38;98706.75;;;18.52;74.03
46506;BME280;32220;49.808;9.968;2023-07-20T04:59:10;98698.72;;;18.52;73.37
46506;BME280;32220;49.808;9.968;2023-07-20T05:01:38;98700.38;;;18.62;73.47
46506;BME280;32220;49.808;9.968;2023-07-20T05:04:06;98703.84;;;18.73;72.78
46506;BME280;32220;49.808;9.968;2023-07-20T05:06:34;98694.09;;;18.72;72.75
46506;BME280;32220;49.808;9.968;2023-07-20T05:09:02;98711.22;;;18.88;72.41
46506;BME280;32220;49.808;9.968;2023-07-20T05:11:29;98713.13;;;18.96;72.54
46506;BME280;32220;49.808;9.968;2023-07-20T05:13:57;98714.06;;;19.05;71.65
46506;BME280;32220;49.808;9.968;2023-07-20T05:16:26;98713.44;;;19.11;71.59
46506;BME280;32220;49.808;9.968;2023-07-20T05:18:57;98716.19;;;19.19;71.05
46506;BME280;32220;49.808;9.968;2023-07-20T05:21:25;98688.31;;;19.12;70.71
46506;BME280;32220;49.808;9.968;2023-07-20T05:23:52;98694.13;;;19.25;70.26
46506;BME280;32220;49.808;9.968;2023-07-20T05:26:20;98710.19;;;19.43;70.52
46506;BME280;32220;49.808;9.968;2023-07-20T05:28:48;98715.34;;;19.54;69.82
46506;BME280;32220;49.808;9.968;2023-07-20T05:31:15;98716.28;;;19.62;70.01
46506;BME280;32220;49.808;9.968;2023-07-20T05:33:44;98715.34;;;19.71;69.58
46506;BME280;32220;49.808;9.968;2023-07-20T05:36:12;98707.31;;;19.80;69.60
46506;BME280;32220;49.808;9.968;2023-07-20T05:38:40;98711.09;;;19.87;68.53
46506;BME280;32220;49.808;9.968;2023-07-20T05:41:07;98713.66;;;19.96;68.67
46506;BME280;32220;49.808;9.968;2023-07-20T05:43:36;98702.78;;;20.06;68.16
46506;BME280;32220;49.808;9.968;2023-07-20T05:46:04;98690.34;;;20.05;68.11
46506;BME280;32220;49.808;9.968;2023-07-20T05:48:32;98707.09;;;20.25;68.09
46506;BME280;32220;49.808;9.968;2023-07-20T05:51:01;98694.16;;;20.28;67.88
46506;BME280;32220;49.808;9.968;2023-07-20T05:53:29;98708.41;;;20.47;66.60
46506;BME280;32220;49.808;9.968;2023-07-20T05:55:56;98714.50;;;20.57;66.12
46506;BME280;32220;49.808;9.968;2023-07-20T05:58:24;98703.03;;;20.55;65.63
46506;BME280;32220;49.808;9.968;2023-07-20T06:00:53;98719.44;;;20.77;65.55
46506;BME280;32220;49.808;9.968;2023-07-20T06:03:21;98703.81;;;20.81;65.19
46506;BME280;32220;49.808;9.968;2023-07-20T06:05:49;98716.31;;;20.98;64.96
46506;BME280;32220;49.808;9.968;2023-07-20T06:08:19;98710.25;;;21.04;64.19
46506;BME280;32220;49.808;9.968;2023-07-20T06:10:50;98705.94;;;21.20;63.87
46506;BME280;32220;49.808;9.968;2023-07-20T06:13:18;98735.22;;;21.39;62.91
46506;BME280;32220;49.808;9.968;2023-07-20T06:15:46;98726.47;;;21.53;62.79
46506;BME280;32220;49.808;9.968;2023-07-20T06:18:13;98724.13;;;21.58;62.25
46506;BME280;32220;49.808;9.968;2023-07-20T06:20:41;98689.13;;;21.50;62.30
46506;BME280;32220;49.808;9.968;2023-07-20T06:23:09;98715.38;;;21.72;61.59
46506;BME280;32220;49.808;9.968;2023-07-20T06:25:39;98724.47;;;21.88;61.35
46506;BME280;32220;49.808;9.968;2023-07-20T06:28:06;98714.34;;;21.98;61.93
46506;BME280;32220;49.808;9.968;2023-07-20T06:30:34;98730.00;;;22.10;60.99
46506;BME280;32220;49.808;9.968;2023-07-20T06:33:02;98727.44;;;22.17;60.65
46506;BME280;32220;49.808;9.968;2023-07-20T06:35:29;98720.84;;;22.28;60.03
46506;BME280;32220;49.808;9.968;2023-07-20T06:37:57;98720.28;;;22.40;59.57
46506;BME280;32220;49.808;9.968;2023-07-20T06:40:26;98727.38;;;22.49;58.91
46506;BME280;32220;49.808;9.968;2023-07-20T06:42:55;98736.72;;;22.70;58.31
46506;BME280;32220;49.808;9.968;2023-07-20T06:45:23;98744.81;;;22.78;56.88
46506;BME280;32220;49.808;9.968;2023-07-20T06:47:51;98749.97;;;22.87;56.74
46506;BME280;32220;49.808;9.968;2023-07-20T06:50:18;98751.09;;;23.01;57.13
46506;BME280;32220;49.808;9.968;2023-07-20T06:52:46;98759.63;;;23.13;56.01
46506;BME280;32220;49.808;9.968;2023-07-20T06:55:14;98748.25;;;23.25;56.41
46506;BME280;32220;49.808;9.968;2023-07-20T06:57:42;98728.69;;;23.23;55.35
46506;BME280;32220;49.808;9.968;2023-07-20T07:00:13;98762.41;;;23.58;55.07
46506;BME280;32220;49.808;9.968;2023-07-20T07:02:40;98762.09;;;23.76;54.33
46506;BME280;32220;49.808;9.968;2023-07-20T07:05:08;98758.59;;;23.90;53.88
46506;BME280;32220;49.808;9.968;2023-07-20T07:07:36;98772.34;;;24.04;53.26
46506;BME280;32220;49.808;9.968;2023-07-20T07:10:05;98740.31;;;23.92;52.74
46506;BME280;32220;49.808;9.968;2023-07-20T07:12:33;98774.56;;;24.23;51.67
46506;BME280;32220;49.808;9.968;2023-07-20T07:15:01;98780.53;;;24.33;51.27
46506;BME280;32220;49.808;9.968;2023-07-20T07:17:30;98774.00;;;24.42;51.74
46506;BME280;32220;49.808;9.968;2023-07-20T07:19:59;98776.16;;;24.47;51.33
46506;BME280;32220;49.808;9.968;2023-07-20T07:22:26;98770.94;;;24.60;51.41
46506;BME280;32220;49.808;9.968;2023-07-20T07:24:55;98779.03;;;24.75;50.62
46506;BME280;32220;49.808;9.968;2023-07-20T07:27:23;98779.59;;;24.85;49.97
46506;BME280;32220;49.808;9.968;2023-07-20T07:29:51;98791.19;;;25.08;49.77
46506;BME280;32220;49.808;9.968;2023-07-20T07:32:18;98786.88;;;25.35;49.38
46506;BME280;32220;49.808;9.968;2023-07-20T07:34:47;98782.25;;;25.65;49.08
46506;BME280;32220;49.808;9.968;2023-07-20T07:37:15;98788.81;;;25.98;48.44
46506;BME280;32220;49.808;9.968;2023-07-20T07:39:45;98792.13;;;26.43;47.84
46506;BME280;32220;49.808;9.968;2023-07-20T07:42:13;98797.97;;;26.46;46.94
46506;BME280;32220;49.808;9.968;2023-07-20T07:44:40;98787.34;;;26.45;46.77
46506;BME280;32220;49.808;9.968;2023-07-20T07:47:08;98792.75;;;26.79;46.34
46506;BME280;32220;49.808;9.968;2023-07-20T07:49:36;98802.16;;;27.18;46.00
46506;BME280;32220;49.808;9.968;2023-07-20T07:52:06;98803.66;;;27.27;44.72
46506;BME280;32220;49.808;9.968;2023-07-20T07:54:34;98804.00;;;27.04;45.43
46506;BME280;32220;49.808;9.968;2023-07-20T07:57:02;98804.03;;;26.76;45.22
46506;BME280;32220;49.808;9.968;2023-07-20T07:59:29;98812.88;;;28.27;43.42
46506;BME280;32220;49.808;9.968;2023-07-20T08:02:04;98821.59;;;29.52;39.89
46506;BME280;32220;49.808;9.968;2023-07-20T08:04:33;98835.22;;;28.94;40.03
46506;BME280;32220;49.808;9.968;2023-07-20T08:07:04;98831.72;;;28.61;40.79
46506;BME280;32220;49.808;9.968;2023-07-20T08:09:33;98824.47;;;29.06;39.95
46506;BME280;32220;49.808;9.968;2023-07-20T08:12:01;98841.69;;;30.03;38.35
46506;BME280;32220;49.808;9.968;2023-07-20T08:14:29;98848.25;;;31.49;36.21
46506;BME280;32220;49.808;9.968;2023-07-20T08:16:58;98858.88;;;33.05;33.81
46506;BME280;32220;49.808;9.968;2023-07-20T08:19:26;98859.78;;;34.31;31.93
46506;BME280;32220;49.808;9.968;2023-07-20T08:21:53;98860.31;;;35.39;30.50
46506;BME280;32220;49.808;9.968;2023-07-20T08:24:21;98843.28;;;36.17;28.84
46506;BME280;32220;49.808;9.968;2023-07-20T08:26:50;98883.22;;;37.05;27.45
46506;BME280;32220;49.808;9.968;2023-07-20T08:29:18;98879.19;;;37.23;27.73
46506;BME280;32220;49.808;9.968;2023-07-20T08:31:46;98885.41;;;37.03;27.51
46506;BME280;32220;49.808;9.968;2023-07-20T08:34:14;98844.66;;;36.79;27.36
46506;BME280;32220;49.808;9.968;2023-07-20T08:36:42;98876.19;;;36.88;27.58
46506;BME280;32220;49.808;9.968;2023-07-20T08:39:10;98878.41;;;36.91;27.60
46506;BME280;32220;49.808;9.968;2023-07-20T08:41:38;98871.75;;;36.82;27.86
46506;BME280;32220;49.808;9.968;2023-07-20T08:44:08;98858.00;;;35.74;28.17
46506;BME280;32220;49.808;9.968;2023-07-20T08:46:38;98872.03;;;34.74;28.76
46506;BME280;32220;49.808;9.968;2023-07-20T08:49:06;98843.75;;;34.95;30.10
46506;BME280;32220;49.808;9.968;2023-07-20T08:51:35;98856.84;;;34.54;30.13
46506;BME280;32220;49.808;9.968;2023-07-20T08:54:03;98846.03;;;34.03;30.42
46506;BME280;32220;49.808;9.968;2023-07-20T08:56:31;98844.38;;;33.73;30.70
46506;BME280;32220;49.808;9.968;2023-07-20T08:59:01;98849.75;;;33.40;30.70
46506;BME280;32220;49.808;9.968;2023-07-20T09:01:31;98845.94;;;33.17;30.89
46506;BME280;32220;49.808;9.968;2023-07-20T09:03:59;98843.22;;;33.29;30.78
46506;BME280;32220;49.808;9.968;2023-07-20T09:06:27;98831.66;;;33.56;30.23
46506;BME280;32220;49.808;9.968;2023-07-20T09:08:55;98848.91;;;33.79;30.45
46506;BME280;32220;49.808;9.968;2023-07-20T09:11:23;98844.63;;;33.20;29.78
46506;BME280;32220;49.808;9.968;2023-07-20T09:14:02;98843.38;;;32.99;31.19
46506;BME280;32220;49.808;9.968;2023-07-20T09:16:31;98841.81;;;32.92;31.44
46506;BME280;32220;49.808;9.968;2023-07-20T09:18:59;98831.44;;;32.82;31.90
46506;BME280;32220;49.808;9.968;2023-07-20T09:21:29;98815.22;;;32.45;31.96
46506;BME280;32220;49.808;9.968;2023-07-20T09:23:57;98835.31;;;31.74;31.92
46506;BME280;32220;49.808;9.968;2023-07-20T09:26:25;98822.78;;;31.49;32.48
46506;BME280;32220;49.808;9.968;2023-07-20T09:28:53;98806.84;;;31.57;32.86
46506;BME280;32220;49.808;9.968;2023-07-20T09:31:22;98827.09;;;31.74;31.47
46506;BME280;32220;49.808;9.968;2023-07-20T09:33:53;98822.47;;;31.87;32.68
46506;BME280;32220;49.808;9.968;2023-07-20T09:36:21;98847.47;;;32.20;30.40
46506;BME280;32220;49.808;9.968;2023-07-20T09:38:49;98825.34;;;31.92;30.84
46506;BME280;32220;49.808;9.968;2023-07-20T09:41:17;98808.06;;;31.91;31.17
46506;BME280;32220;49.808;9.968;2023-07-20T09:43:45;98821.53;;;32.34;30.71
46506;BME280;32220;49.808;9.968;2023-07-20T09:46:13;98825.25;;;32.52;31.29
46506;BME280;32220;49.808;9.968;2023-07-20T09:48:53;98838.16;;;32.86;30.01
46506;BME280;32220;49.808;9.968;2023-07-20T09:51:22;98830.84;;;33.55;29.00
46506;BME280;32220;49.808;9.968;2023-07-20T09:53:52;98844.75;;;34.72;27.07
46506;BME280;32220;49.808;9.968;2023-07-20T09:56:21;98854.75;;;36.31;25.75
46506;BME280;32220;49.808;9.968;2023-07-20T09:58:50;98865.09;;;37.82;24.05
46506;BME280;32220;49.808;9.968;2023-07-20T10:01:20;98850.25;;;38.64;24.14
46506;BME280;32220;49.808;9.968;2023-07-20T10:03:48;98848.56;;;38.13;23.30
46506;BME280;32220;49.808;9.968;2023-07-20T10:06:23;98860.84;;;37.12;24.52
46506;BME280;32220;49.808;9.968;2023-07-20T10:08:53;98849.63;;;36.18;24.95
46506;BME280;32220;49.808;9.968;2023-07-20T10:11:21;98833.69;;;35.44;26.13
46506;BME280;32220;49.808;9.968;2023-07-20T10:13:51;98840.56;;;35.25;26.09
46506;BME280;32220;49.808;9.968;2023-07-20T10:16:22;98837.56;;;35.26;26.36
46506;BME280;32220;49.808;9.968;2023-07-20T10:19:01;98834.38;;;35.78;25.07
46506;BME280;32220;49.808;9.968;2023-07-20T10:21:33;98817.03;;;35.34;26.16
46506;BME280;32220;49.808;9.968;2023-07-20T10:24:04;98837.78;;;34.48;26.52
46506;BME280;32220;49.808;9.968;2023-07-20T10:26:32;98826.91;;;34.08;27.12
46506;BME280;32220;49.808;9.968;2023-07-20T10:29:01;98821.69;;;34.56;26.84
46506;BME280;32220;49.808;9.968;2023-07-20T10:31:29;98821.03;;;35.05;26.72
46506;BME280;32220;49.808;9.968;2023-07-20T10:33:57;98796.53;;;35.47;26.35
46506;BME280;32220;49.808;9.968;2023-07-20T10:36:26;98822.34;;;35.89;25.71
46506;BME280;32220;49.808;9.968;2023-07-20T10:38:56;98817.63;;;36.49;24.43
46506;BME280;32220;49.808;9.968;2023-07-20T10:41:28;98830.03;;;37.25;24.18
46506;BME280;32220;49.808;9.968;2023-07-20T10:43:59;98835.59;;;37.30;24.19
46506;BME280;32220;49.808;9.968;2023-07-20T10:46:42;98837.34;;;37.62;23.63
46506;BME280;32220;49.808;9.968;2023-07-20T10:49:11;98828.69;;;37.33;23.04
46506;BME280;32220;49.808;9.968;2023-07-20T10:51:40;98832.06;;;36.98;23.83
46506;BME280;32220;49.808;9.968;2023-07-20T10:54:33;98813.03;;;36.96;24.87
46506;BME280;32220;49.808;9.968;2023-07-20T10:57:23;98819.31;;;36.87;23.90
46506;BME280;32220;49.808;9.968;2023-07-20T10:59:51;98814.09;;;36.53;25.49
46506;BME280;32220;49.808;9.968;2023-07-20T11:02:19;98812.94;;;36.49;24.78
46506;BME280;32220;49.808;9.968;2023-07-20T11:04:48;98816.03;;;36.53;24.34
46506;BME280;32220;49.808;9.968;2023-07-20T11:07:17;98814.16;;;36.63;24.56
46506;BME280;32220;49.808;9.968;2023-07-20T11:09:47;98811.56;;;36.47;24.33
46506;BME280;32220;49.808;9.968;2023-07-20T11:12:16;98801.09;;;36.49;24.61
46506;BME280;32220;49.808;9.968;2023-07-20T11:14:54;98809.16;;;36.60;24.29
46506;BME280;32220;49.808;9.968;2023-07-20T11:17:29;98805.31;;;36.61;24.76
46506;BME280;32220;49.808;9.968;2023-07-20T11:19:58;98803.53;;;36.13;25.02
46506;BME280;32220;49.808;9.968;2023-07-20T11:22:27;98803.31;;;35.88;25.19
46506;BME280;32220;49.808;9.968;2023-07-20T11:24:57;98796.69;;;35.89;24.87
46506;BME280;32220;49.808;9.968;2023-07-20T11:27:25;98795.94;;;35.93;25.10
46506;BME280;32220;49.808;9.968;2023-07-20T11:29:54;98791.44;;;35.87;24.83
46506;BME280;32220;49.808;9.968;2023-07-20T11:32:22;98800.13;;;35.74;24.28
46506;BME280;32220;49.808;9.968;2023-07-20T11:34:50;98788.66;;;35.82;24.55
46506;BME280;32220;49.808;9.968;2023-07-20T11:37:18;98765.19;;;35.80;23.63
46506;BME280;32220;49.808;9.968;2023-07-20T11:39:46;98798.78;;;36.04;22.11
46506;BME280;32220;49.808;9.968;2023-07-20T11:42:19;98790.16;;;36.27;22.78
46506;BME280;32220;49.808;9.968;2023-07-20T11:44:51;98789.88;;;36.65;23.28
46506;BME280;32220;49.808;9.968;2023-07-20T11:47:19;98793.09;;;36.47;22.89
46506;BME280;32220;49.808;9.968;2023-07-20T11:49:47;98792.00;;;36.16;22.95
46506;BME280;32220;49.808;9.968;2023-07-20T11:52:22;98793.09;;;35.83;23.83
46506;BME280;32220;49.808;9.968;2023-07-20T11:54:50;98793.31;;;35.55;23.32
46506;BME280;32220;49.808;9.968;2023-07-20T11:57:21;98789.28;;;34.97;24.16
46506;BME280;32220;49.808;9.968;2023-07-20T11:59:55;98785.38;;;35.15;24.13
46506;BME280;32220;49.808;9.968;2023-07-20T12:02:23;98786.81;;;37.04;23.40
46506;BME280;32220;49.808;9.968;2023-07-20T12:04:52;98789.31;;;37.05;22.88
46506;BME280;32220;49.808;9.968;2023-07-20T12:07:20;98786.47;;;36.48;23.52
46506;BME280;32220;49.808;9.968;2023-07-20T12:10:02;98771.72;;;35.74;24.00
46506;BME280;32220;49.808;9.968;2023-07-20T12:12:32;98778.66;;;35.27;24.16
46506;BME280;32220;49.808;9.968;2023-07-20T12:15:16;98784.03;;;36.99;23.17
46506;BME280;32220;49.808;9.968;2023-07-20T12:17:44;98783.59;;;39.35;21.46
46506;BME280;32220;49.808;9.968;2023-07-20T12:20:12;98787.16;;;41.11;20.62
46506;BME280;32220;49.808;9.968;2023-07-20T12:22:40;98790.88;;;40.14;20.07
46506;BME280;32220;49.808;9.968;2023-07-20T12:25:08;98782.91;;;38.94;21.09
46506;BME280;32220;49.808;9.968;2023-07-20T12:27:37;98775.75;;;37.71;21.86
46506;BME280;32220;49.808;9.968;2023-07-20T12:30:07;98780.25;;;36.68;22.73
46506;BME280;32220;49.808;9.968;2023-07-20T12:32:34;98766.88;;;35.81;23.50
46506;BME280;32220;49.808;9.968;2023-07-20T12:35:02;98764.38;;;35.31;23.67
46506;BME280;32220;49.808;9.968;2023-07-20T12:37:30;98726.69;;;36.64;23.04
46506;BME280;32220;49.808;9.968;2023-07-20T12:39:58;98742.31;;;37.98;21.20
46506;BME280;32220;49.808;9.968;2023-07-20T12:42:26;98771.19;;;37.25;21.98
46506;BME280;32220;49.808;9.968;2023-07-20T12:44:55;98749.63;;;36.27;23.24
46506;BME280;32220;49.808;9.968;2023-07-20T12:47:23;98753.69;;;35.61;23.29
46506;BME280;32220;49.808;9.968;2023-07-20T12:49:50;98749.13;;;35.23;23.57
46506;BME280;32220;49.808;9.968;2023-07-20T12:52:18;98734.47;;;35.17;23.46
46506;BME280;32220;49.808;9.968;2023-07-20T12:54:45;98745.09;;;34.87;23.98
46506;BME280;32220;49.808;9.968;2023-07-20T12:57:13;98742.72;;;35.93;23.57
46506;BME280;32220;49.808;9.968;2023-07-20T12:59:41;98746.94;;;36.80;23.24
46506;BME280;32220;49.808;9.968;2023-07-20T13:02:10;98735.63;;;37.44;22.50
46506;BME280;32220;49.808;9.968;2023-07-20T13:04:38;98704.47;;;38.19;21.52
46506;BME280;32220;49.808;9.968;2023-07-20T13:07:09;98740.56;;;37.42;22.16
46506;BME280;32220;49.808;9.968;2023-07-20T13:09:37;98741.69;;;36.36;23.14